Time;durP1;ratioP1;P1;durP2;ratioP2;P2;SDS_P1;SDS_P2;PMS_P1;PMS_P2;Temp;Humidity;BMP_temperature;BMP_pressure;BME280_temperature;BME280_humidity;BME280_pressure;Samples;Min_cycle;Max_cycle;Signal;HPM_P1;HPM_P2
2021/04/03 00:00:51;;;;;;;26.70;8.15;;;6.60;80.70;;;;;;5033671;28;20472;-77
2021/04/03 00:03:19;;;;;;;28.08;8.07;;;6.60;80.70;;;;;;5010994;28;20036;-74
2021/04/03 00:05:45;;;;;;;24.42;8.10;;;6.60;80.70;;;;;;5019403;28;20045;-72
2021/04/03 00:08:12;;;;;;;26.40;7.55;;;6.70;80.60;;;;;;5017680;28;20056;-75
2021/04/03 00:10:46;;;;;;;24.50;7.97;;;6.70;80.70;;;;;;5026125;28;20246;-73
2021/04/03 00:13:14;;;;;;;26.38;9.05;;;6.70;80.50;;;;;;5012094;28;20040;-75
2021/04/03 00:15:40;;;;;;;21.10;7.97;;;6.70;80.40;;;;;;5012135;28;20063;-75
2021/04/03 00:18:05;;;;;;;23.48;7.70;;;6.70;80.20;;;;;;5026689;28;20029;-74
2021/04/03 00:20:33;;;;;;;28.58;8.60;;;6.80;79.80;;;;;;5032167;28;20033;-77
2021/04/03 00:22:59;;;;;;;26.10;7.85;;;6.80;79.70;;;;;;5028658;28;20578;-74
2021/04/03 00:25:25;;;;;;;18.83;7.30;;;6.70;79.60;;;;;;5026288;28;20038;-71
2021/04/03 00:27:51;;;;;;;21.15;7.57;;;6.60;79.60;;;;;;5030143;28;20038;-72
2021/04/03 00:30:18;;;;;;;23.02;7.45;;;6.60;79.60;;;;;;5029038;28;20025;-72
2021/04/03 00:32:52;;;;;;;21.83;7.47;;;6.60;79.50;;;;;;5030168;28;20549;-73
2021/04/03 00:35:20;;;;;;;25.63;8.05;;;6.60;79.60;;;;;;5028962;28;20033;-73
2021/04/03 00:37:47;;;;;;;24.05;7.93;;;6.60;79.70;;;;;;5028919;28;20029;-73
2021/04/03 00:40:17;;;;;;;22.25;7.78;;;6.50;79.70;;;;;;5057870;28;20045;-74
2021/04/03 00:42:44;;;;;;;24.38;7.43;;;6.50;79.70;;;;;;5054416;28;20036;-73
2021/04/03 00:45:10;;;;;;;20.27;7.68;;;6.50;79.60;;;;;;5036997;28;20037;-74
2021/04/03 00:47:35;;;;;;;25.30;7.47;;;6.50;79.40;;;;;;5019008;28;20030;-74
2021/04/03 00:50:02;;;;;;;24.83;7.55;;;6.40;79.30;;;;;;5032022;28;20052;-73
2021/04/03 00:52:28;;;;;;;25.48;7.30;;;6.40;79.40;;;;;;5031268;28;20038;-72
2021/04/03 00:54:53;;;;;;;23.02;7.15;;;6.30;79.20;;;;;;5018892;28;20051;-72
2021/04/03 00:57:19;;;;;;;20.13;7.20;;;6.40;79.20;;;;;;5022420;28;20112;-74
2021/04/03 00:59:46;;;;;;;19.45;7.10;;;6.40;78.90;;;;;;5035427;28;20034;-72
2021/04/03 01:02:11;;;;;;;18.30;5.97;;;6.40;78.40;;;;;;5028675;28;20037;-72
2021/04/03 01:04:38;;;;;;;19.38;5.95;;;6.30;78.20;;;;;;5034477;28;20041;-76
2021/04/03 01:07:04;;;;;;;17.30;5.90;;;6.40;78.10;;;;;;5032987;28;20099;-72
2021/04/03 01:09:34;;;;;;;27.88;7.22;;;6.50;78.00;;;;;;5028185;28;20555;-72
2021/04/03 01:12:21;;;;;;;19.50;6.63;;;6.40;77.80;;;;;;5021863;28;20132;-77
2021/04/03 01:15:10;;;;;;;24.60;7.88;;;6.50;77.90;;;;;;5026749;28;20041;-72
2021/04/03 01:18:05;;;;;;;23.23;6.93;;;6.50;78.00;;;;;;5026968;28;20041;-74
2021/04/03 01:20:57;;;;;;;25.20;7.45;;;6.60;78.10;;;;;;5021828;28;20464;-76
2021/04/03 01:24:00;;;;;;;23.85;8.05;;;6.50;77.80;;;;;;5026945;28;20065;-76
2021/04/03 01:26:59;;;;;;;24.02;8.18;;;6.60;77.90;;;;;;5026335;28;20048;-71
2021/04/03 01:29:48;;;;;;;23.23;6.80;;;6.60;78.10;;;;;;5024491;28;20093;-71
2021/04/03 01:32:27;;;;;;;25.08;7.25;;;6.60;78.00;;;;;;5023912;28;20054;-72
2021/04/03 01:34:56;;;;;;;18.67;6.53;;;6.60;77.80;;;;;;5023692;28;20091;-71
2021/04/03 01:37:23;;;;;;;24.75;7.43;;;6.60;77.80;;;;;;5027136;28;20030;-72
2021/04/03 01:39:52;;;;;;;24.25;7.22;;;6.60;77.50;;;;;;5037198;28;20029;-71
2021/04/03 01:42:20;;;;;;;20.40;7.57;;;6.60;77.70;;;;;;5020667;28;20029;-74
2021/04/03 01:44:50;;;;;;;27.10;6.78;;;6.60;77.50;;;;;;5017335;28;20491;-71
2021/04/03 01:47:20;;;;;;;20.55;6.40;;;6.60;77.10;;;;;;5027275;28;20117;-77
2021/04/03 01:49:49;;;;;;;25.80;6.80;;;6.60;76.90;;;;;;5030486;28;20025;-71
2021/04/03 01:52:17;;;;;;;21.73;6.35;;;6.60;76.50;;;;;;5024853;28;20055;-74
2021/04/03 01:54:44;;;;;;;23.27;6.05;;;6.60;76.10;;;;;;5033388;28;20476;-74
2021/04/03 01:57:10;;;;;;;29.83;6.10;;;6.70;75.70;;;;;;5029587;28;20029;-73
2021/04/03 01:59:38;;;;;;;20.88;5.47;;;6.80;75.10;;;;;;5001353;28;20034;-76
2021/04/03 02:02:06;;;;;;;20.92;5.78;;;6.70;74.00;;;;;;4995444;28;20038;-75
2021/04/03 02:04:32;;;;;;;22.00;6.60;;;6.80;73.10;;;;;;5007570;28;20092;-73
2021/04/03 02:06:57;;;;;;;29.65;6.32;;;6.90;72.60;;;;;;5010464;28;20263;-77
2021/04/03 02:09:24;;;;;;;23.67;5.85;;;6.90;72.40;;;;;;5010123;28;20037;-73
2021/04/03 02:11:51;;;;;;;26.30;5.80;;;6.80;72.10;;;;;;5008466;28;20815;-73
2021/04/03 02:14:19;;;;;;;29.92;6.53;;;6.90;72.10;;;;;;5013875;28;20037;-74
2021/04/03 02:16:46;;;;;;;28.63;6.55;;;6.90;71.80;;;;;;5025084;28;20037;-73
2021/04/03 02:19:12;;;;;;;27.40;5.70;;;6.90;71.10;;;;;;5024021;28;20030;-73
2021/04/03 02:21:41;;;;;;;21.48;5.00;;;7.00;70.60;;;;;;5025052;28;20034;-74
2021/04/03 02:24:07;;;;;;;17.33;4.40;;;6.90;70.40;;;;;;5045225;28;20037;-74
2021/04/03 02:26:35;;;;;;;27.48;7.70;;;6.90;70.10;;;;;;5025883;28;20111;-73
2021/04/03 02:29:01;;;;;;;20.65;3.83;;;6.90;69.90;;;;;;5022289;28;20034;-76
2021/04/03 02:31:29;;;;;;;22.50;6.07;;;6.90;69.90;;;;;;5035980;28;20803;-73
2021/04/03 02:33:54;;;;;;;16.70;4.60;;;6.90;69.80;;;;;;5031168;28;20396;-73
2021/04/03 02:36:20;;;;;;;16.63;4.63;;;6.90;69.20;;;;;;5037236;28;20029;-73
2021/04/03 02:38:48;;;;;;;15.38;3.90;;;6.90;69.50;;;;;;5028019;28;20030;-74
2021/04/03 02:41:18;;;;;;;20.42;4.25;;;6.90;69.40;;;;;;5024910;28;20056;-73
2021/04/03 02:43:50;;;;;;;17.33;3.95;;;6.90;69.70;;;;;;5030554;28;20025;-74
2021/04/03 02:46:43;;;;;;;20.08;4.38;;;6.80;70.00;;;;;;5029461;28;20041;-73
2021/04/03 02:49:16;;;;;;;23.05;4.57;;;6.90;69.90;;;;;;5028387;28;20036;-73
2021/04/03 02:51:45;;;;;;;19.42;5.00;;;6.90;69.90;;;;;;5036612;28;20120;-73
2021/04/03 02:54:17;;;;;;;21.95;4.75;;;6.90;69.30;;;;;;5031397;28;20064;-73
2021/04/03 02:56:44;;;;;;;18.77;3.90;;;6.90;69.10;;;;;;5035717;28;20077;-72
2021/04/03 02:59:20;;;;;;;22.17;3.88;;;6.80;69.30;;;;;;5029478;28;20025;-73
2021/04/03 03:01:48;;;;;;;18.48;4.28;;;6.70;69.30;;;;;;5026006;28;20137;-73
2021/04/03 03:04:16;;;;;;;19.23;3.88;;;6.70;69.60;;;;;;5032214;28;20044;-73
2021/04/03 03:06:45;;;;;;;21.65;3.92;;;6.60;69.80;;;;;;5045784;28;20052;-74
2021/04/03 03:09:15;;;;;;;20.48;4.40;;;6.70;69.60;;;;;;5013827;28;20118;-74
2021/04/03 03:11:48;;;;;;;16.80;3.72;;;6.60;69.80;;;;;;5013978;28;20037;-73
2021/04/03 03:14:16;;;;;;;15.65;4.57;;;6.70;70.00;;;;;;5018201;28;20233;-72
2021/04/03 03:16:43;;;;;;;20.63;4.32;;;6.60;70.00;;;;;;5005529;28;20030;-73
2021/04/03 03:19:10;;;;;;;23.58;4.43;;;6.60;70.10;;;;;;5011875;28;20033;-73
2021/04/03 03:21:39;;;;;;;14.95;3.90;;;6.70;69.80;;;;;;5021025;28;20121;-73
2021/04/03 03:24:11;;;;;;;16.75;4.28;;;6.70;69.20;;;;;;5026455;28;20045;-73
2021/04/03 03:26:38;;;;;;;17.83;5.03;;;6.60;68.20;;;;;;5027287;28;20033;-73
2021/04/03 03:29:07;;;;;;;18.92;4.07;;;6.60;67.90;;;;;;5030796;28;20041;-73
2021/04/03 03:31:33;;;;;;;16.40;4.80;;;6.60;67.40;;;;;;5028382;28;20487;-73
2021/04/03 03:34:00;;;;;;;17.92;4.00;;;6.60;67.20;;;;;;5024194;28;20039;-73
2021/04/03 03:36:27;;;;;;;19.73;5.25;;;6.60;66.70;;;;;;5027626;28;20645;-74
2021/04/03 03:38:54;;;;;;;19.45;4.18;;;6.60;66.80;;;;;;5039042;28;20072;-73
2021/04/03 03:41:21;;;;;;;20.63;4.75;;;6.60;66.90;;;;;;5031392;28;20025;-77
2021/04/03 03:43:47;;;;;;;23.27;5.55;;;6.60;66.40;;;;;;5033374;28;20476;-73
2021/04/03 03:46:13;;;;;;;23.52;4.47;;;6.60;66.50;;;;;;5026851;28;20488;-74
2021/04/03 03:48:39;;;;;;;16.02;4.18;;;6.60;66.00;;;;;;5034707;28;20048;-73
2021/04/03 03:51:04;;;;;;;18.65;4.38;;;6.60;66.20;;;;;;5035557;28;20045;-74
2021/04/03 03:53:30;;;;;;;23.25;4.07;;;6.60;66.30;;;;;;5034292;28;20032;-75
2021/04/03 03:55:57;;;;;;;20.05;4.55;;;6.70;66.20;;;;;;5028664;28;20115;-73
2021/04/03 03:58:23;;;;;;;20.17;4.05;;;6.60;66.30;;;;;;5028967;28;20026;-73
2021/04/03 04:00:49;;;;;;;21.75;6.20;;;6.60;66.40;;;;;;5029149;28;20033;-74
2021/04/03 04:03:15;;;;;;;24.73;5.13;;;6.60;66.70;;;;;;5028747;28;20048;-73
2021/04/03 04:05:40;;;;;;;15.18;4.47;;;6.70;66.80;;;;;;5030667;28;20528;-74
2021/04/03 04:08:06;;;;;;;27.55;4.30;;;6.60;66.90;;;;;;5017821;28;20045;-74
2021/04/03 04:10:33;;;;;;;23.45;4.93;;;6.60;66.30;;;;;;5018463;28;20045;-73
2021/04/03 04:13:00;;;;;;;19.58;4.35;;;6.70;65.90;;;;;;5031421;28;20131;-72
2021/04/03 04:15:26;;;;;;;25.75;5.13;;;6.60;65.80;;;;;;5038928;28;20034;-72
2021/04/03 04:17:51;;;;;;;23.88;5.65;;;6.70;65.50;;;;;;5039148;28;20041;-72
2021/04/03 04:20:17;;;;;;;20.88;4.80;;;6.70;65.40;;;;;;5004763;28;20038;-72
2021/04/03 04:22:43;;;;;;;21.48;5.28;;;6.70;65.90;;;;;;5006407;28;20454;-73
2021/04/03 04:25:09;;;;;;;19.48;4.60;;;6.70;66.20;;;;;;5022280;28;20053;-75
2021/04/03 04:27:35;;;;;;;27.52;5.45;;;6.70;66.40;;;;;;5003022;28;20035;-72
2021/04/03 04:30:09;;;;;;;22.90;4.75;;;6.70;66.50;;;;;;5008945;28;20042;-74
2021/04/03 04:32:36;;;;;;;19.48;4.57;;;6.70;66.60;;;;;;5010698;28;20396;-73
2021/04/03 04:35:03;;;;;;;22.05;4.85;;;6.80;66.60;;;;;;5024022;28;20026;-72
2021/04/03 04:37:29;;;;;;;18.65;4.75;;;6.80;66.10;;;;;;5036130;28;20045;-73
2021/04/03 04:39:54;;;;;;;24.40;4.32;;;6.70;66.20;;;;;;5035021;28;20412;-72
2021/04/03 04:42:20;;;;;;;22.77;4.35;;;6.70;66.20;;;;;;5040347;28;20242;-72
2021/04/03 04:44:46;;;;;;;18.20;4.32;;;6.70;66.30;;;;;;5029822;28;20022;-72
2021/04/03 04:47:11;;;;;;;22.80;5.28;;;6.70;66.30;;;;;;5028372;28;20034;-71
2021/04/03 04:49:37;;;;;;;19.17;4.28;;;6.70;65.50;;;;;;5029751;28;20092;-72
2021/04/03 04:52:03;;;;;;;25.05;4.70;;;6.80;65.60;;;;;;5027566;28;20203;-73
2021/04/03 04:54:28;;;;;;;21.13;4.15;;;6.70;65.60;;;;;;5021109;28;20037;-72
2021/04/03 04:56:54;;;;;;;26.13;5.20;;;6.80;65.70;;;;;;5035530;28;20029;-73
2021/04/03 04:59:20;;;;;;;17.90;3.38;;;6.70;65.90;;;;;;5020798;28;20400;-72
2021/04/03 05:01:45;;;;;;;20.35;4.25;;;6.70;65.50;;;;;;5025756;28;20467;-72
2021/04/03 05:04:11;;;;;;;20.15;4.97;;;6.70;65.90;;;;;;5025442;28;20037;-72
2021/04/03 05:06:37;;;;;;;24.98;4.20;;;6.70;65.80;;;;;;5026819;28;20467;-72
2021/04/03 05:09:02;;;;;;;23.48;4.65;;;6.70;65.70;;;;;;5027487;28;20116;-73
2021/04/03 05:11:28;;;;;;;24.48;4.25;;;6.70;65.40;;;;;;5025526;28;20128;-72
2021/04/03 05:13:54;;;;;;;27.73;4.47;;;6.70;65.30;;;;;;5029354;28;20040;-73
2021/04/03 05:16:19;;;;;;;24.40;4.45;;;6.80;65.40;;;;;;5026974;28;20033;-76
2021/04/03 05:18:45;;;;;;;22.50;4.45;;;6.80;65.50;;;;;;5026686;28;20468;-73
2021/04/03 05:21:11;;;;;;;25.17;5.53;;;6.70;65.50;;;;;;5023623;28;20064;-72
2021/04/03 05:23:36;;;;;;;21.23;4.85;;;6.70;65.40;;;;;;5026665;28;20042;-72
2021/04/03 05:26:03;;;;;;;23.38;4.97;;;6.80;65.30;;;;;;5009461;28;20139;-73
2021/04/03 05:28:28;;;;;;;21.15;5.05;;;6.80;65.30;;;;;;5024184;28;20061;-73
2021/04/03 05:30:54;;;;;;;23.10;5.00;;;6.80;65.50;;;;;;5029635;28;20084;-73
2021/04/03 05:33:20;;;;;;;20.58;4.63;;;6.80;65.40;;;;;;5021903;28;20041;-73
2021/04/03 05:35:45;;;;;;;20.55;5.00;;;6.80;65.40;;;;;;5005687;28;20037;-73
2021/04/03 05:38:11;;;;;;;24.10;4.68;;;6.80;65.60;;;;;;5015330;28;20048;-73
2021/04/03 05:40:36;;;;;;;18.90;4.68;;;6.80;65.80;;;;;;4997732;28;20038;-73
2021/04/03 05:43:03;;;;;;;22.80;4.63;;;6.80;65.90;;;;;;5014637;28;20049;-72
2021/04/03 05:45:29;;;;;;;23.98;5.20;;;6.90;66.00;;;;;;5025106;28;20472;-73
2021/04/03 05:47:57;;;;;;;19.17;3.58;;;6.80;66.10;;;;;;5027750;28;20088;-72
2021/04/03 05:50:24;;;;;;;19.48;4.68;;;6.80;66.60;;;;;;5031815;28;20137;-72
2021/04/03 05:52:50;;;;;;;21.10;4.07;;;6.80;67.30;;;;;;5026191;28;20021;-73
2021/04/03 05:55:15;;;;;;;25.90;4.25;;;6.80;67.70;;;;;;5025128;28;20026;-72
2021/04/03 05:57:41;;;;;;;22.35;5.15;;;6.80;68.20;;;;;;5028287;28;20469;-74
2021/04/03 06:00:08;;;;;;;21.15;4.72;;;6.80;68.60;;;;;;5025912;28;20033;-73
2021/04/03 06:02:39;;;;;;;21.25;4.57;;;6.70;68.30;;;;;;5027789;28;20034;-73
2021/04/03 06:05:06;;;;;;;20.75;5.25;;;6.70;68.40;;;;;;5020596;28;20120;-74
2021/04/03 06:07:32;;;;;;;20.95;5.47;;;6.80;68.70;;;;;;5026550;28;20038;-72
2021/04/03 06:09:59;;;;;;;25.52;13.27;;;6.80;69.20;;;;;;5026971;28;20033;-73
2021/04/03 06:12:47;;;;;;;18.58;5.28;;;6.80;69.50;;;;;;5036178;28;20042;-72
2021/04/03 06:15:34;;;;;;;20.80;4.55;;;6.80;69.00;;;;;;5019307;28;20431;-75
2021/04/03 06:18:08;;;;;;;23.92;4.75;;;6.80;69.30;;;;;;5019591;28;20087;-73
2021/04/03 06:20:36;;;;;;;22.85;4.78;;;6.80;69.30;;;;;;5022878;28;20461;-74
2021/04/03 06:23:08;;;;;;;21.20;4.45;;;6.70;68.70;;;;;;5016951;28;20034;-72
2021/04/03 06:25:57;;;;;;;20.60;4.78;;;6.70;68.20;;;;;;5020646;28;20548;-73
2021/04/03 06:28:31;;;;;;;24.42;7.15;;;6.80;68.30;;;;;;5010200;28;20153;-74
2021/04/03 06:31:17;;;;;;;17.20;4.85;;;6.80;68.00;;;;;;5018461;28;20041;-73
2021/04/03 06:33:44;;;;;;;18.77;5.15;;;6.80;68.00;;;;;;5020112;28;20037;-72
2021/04/03 06:36:15;;;;;;;24.77;5.40;;;7.00;67.90;;;;;;5014449;28;20076;-72
2021/04/03 06:38:41;;;;;;;20.13;4.85;;;6.90;67.80;;;;;;5036621;28;20361;-72
2021/04/03 06:41:25;;;;;;;18.52;4.05;;;6.90;67.80;;;;;;5018230;28;20041;-73
2021/04/03 06:44:05;;;;;;;20.30;4.32;;;7.00;67.80;;;;;;5023836;28;20033;-73
2021/04/03 06:46:31;;;;;;;22.02;5.13;;;6.90;67.60;;;;;;5015899;28;20053;-72
2021/04/03 06:48:59;;;;;;;25.05;4.85;;;7.00;66.90;;;;;;5024182;28;20121;-72
2021/04/03 06:51:25;;;;;;;21.75;4.63;;;7.00;66.50;;;;;;5014365;28;20048;-71
2021/04/03 06:53:56;;;;;;;20.50;4.82;;;6.90;65.80;;;;;;5019071;28;20032;-72
2021/04/03 06:56:24;;;;;;;25.30;5.60;;;7.00;65.30;;;;;;5023215;28;20393;-72
2021/04/03 06:59:07;;;;;;;18.60;4.45;;;7.10;65.70;;;;;;5022325;28;20061;-73
2021/04/03 07:01:38;;;;;;;18.45;4.45;;;7.10;65.20;;;;;;5020637;28;20034;-73
2021/04/03 07:04:14;;;;;;;20.45;4.50;;;7.10;64.90;;;;;;5020353;28;20044;-73
2021/04/03 07:06:43;;;;;;;24.52;5.35;;;7.10;64.80;;;;;;5028261;28;20045;-73
2021/04/03 07:09:10;;;;;;;24.15;4.95;;;7.00;64.90;;;;;;5031372;28;20053;-73
2021/04/03 07:11:36;;;;;;;21.88;4.70;;;7.10;65.10;;;;;;5032883;28;20045;-72
2021/04/03 07:14:03;;;;;;;23.98;5.78;;;7.20;64.40;;;;;;5021861;28;20483;-72
2021/04/03 07:16:30;;;;;;;21.00;5.50;;;7.20;63.20;;;;;;5018672;28;20368;-73
2021/04/03 07:18:56;;;;;;;22.00;6.20;;;7.20;62.10;;;;;;5021834;28;20072;-72
2021/04/03 07:21:22;;;;;;;19.10;5.70;;;7.20;61.80;;;;;;5013431;28;20045;-73
2021/04/03 07:23:52;;;;;;;25.50;6.93;;;7.20;61.70;;;;;;5024050;28;20152;-72
2021/04/03 07:26:18;;;;;;;20.90;6.28;;;7.20;61.60;;;;;;5026199;28;20040;-73
2021/04/03 07:28:44;;;;;;;21.83;6.88;;;7.30;61.60;;;;;;5020880;28;20042;-74
2021/04/03 07:31:10;;;;;;;20.42;5.82;;;7.30;61.00;;;;;;5016278;28;20034;-72
2021/04/03 07:33:48;;;;;;;24.77;5.95;;;7.40;61.00;;;;;;5018995;28;20032;-72
2021/04/03 07:36:31;;;;;;;25.15;6.32;;;7.30;61.40;;;;;;5018111;28;20456;-73
2021/04/03 07:38:57;;;;;;;18.52;5.88;;;7.40;61.20;;;;;;5018169;28;20030;-73
2021/04/03 07:41:22;;;;;;;23.70;6.07;;;7.50;61.50;;;;;;5017608;28;20365;-74
2021/04/03 07:43:49;;;;;;;29.15;6.70;;;7.50;61.50;;;;;;5014712;28;20352;-73
2021/04/03 07:46:34;;;;;;;23.00;6.15;;;7.40;61.70;;;;;;5016318;28;20014;-73
2021/04/03 07:49:01;;;;;;;20.35;5.55;;;7.40;61.90;;;;;;5016447;28;20092;-74
2021/04/03 07:51:33;;;;;;;26.15;6.38;;;7.50;61.40;;;;;;5019602;28;20524;-75
2021/04/03 07:54:11;;;;;;;19.38;5.72;;;7.60;61.90;;;;;;5016724;28;20120;-72
2021/04/03 07:56:52;;;;;;;23.52;6.90;;;7.60;62.10;;;;;;5022719;28;20029;-75
2021/04/03 07:59:38;;;;;;;21.95;5.43;;;7.60;62.30;;;;;;5018837;28;20046;-77
2021/04/03 08:02:04;;;;;;;24.13;5.63;;;7.60;62.30;;;;;;5014354;28;20041;-74
2021/04/03 08:04:30;;;;;;;24.10;5.63;;;7.60;62.80;;;;;;5021048;28;20482;-74
2021/04/03 08:06:59;;;;;;;20.20;4.63;;;7.70;63.10;;;;;;5028012;28;20050;-73
2021/04/03 08:09:31;;;;;;;23.83;5.93;;;7.70;63.20;;;;;;5027081;28;20109;-76
2021/04/03 08:11:57;;;;;;;20.02;4.65;;;7.80;63.10;;;;;;5025065;28;20052;-73
2021/04/03 08:14:27;;;;;;;19.67;5.38;;;7.80;63.40;;;;;;5021484;28;20026;-73
2021/04/03 08:16:53;;;;;;;23.55;5.53;;;7.60;62.60;;;;;;5016654;28;20135;-73
2021/04/03 08:19:27;;;;;;;28.17;5.30;;;7.70;63.10;;;;;;5024650;28;20030;-74
2021/04/03 08:21:53;;;;;;;27.85;5.88;;;7.70;63.10;;;;;;5019146;28;20120;-73
2021/04/03 08:24:20;;;;;;;22.40;5.53;;;7.80;63.20;;;;;;5021389;28;20041;-75
2021/04/03 08:26:47;;;;;;;28.00;7.75;;;7.80;62.70;;;;;;5011112;28;20040;-75
2021/04/03 08:29:28;;;;;;;19.98;5.78;;;8.00;62.00;;;;;;5021156;28;20045;-75
2021/04/03 08:31:55;;;;;;;22.35;5.97;;;8.10;62.40;;;;;;5016264;28;20041;-74
2021/04/03 08:34:21;;;;;;;22.40;6.40;;;8.10;61.70;;;;;;5008041;28;20042;-73
2021/04/03 08:36:47;;;;;;;18.50;5.25;;;8.30;61.50;;;;;;5024714;28;20021;-75
2021/04/03 08:39:15;;;;;;;30.45;6.53;;;8.40;61.20;;;;;;5019293;28;20053;-76
2021/04/03 08:41:43;;;;;;;21.98;6.05;;;8.50;61.20;;;;;;5013888;28;20033;-74
2021/04/03 08:44:22;;;;;;;18.95;5.45;;;8.50;61.00;;;;;;5014339;28;20038;-78
2021/04/03 08:46:53;;;;;;;23.10;5.53;;;8.30;60.60;;;;;;5019007;28;20038;-78
2021/04/03 08:49:29;;;;;;;20.95;5.80;;;8.30;61.90;;;;;;5020952;28;20022;-74
2021/04/03 08:51:54;;;;;;;23.42;5.75;;;8.30;62.30;;;;;;5017539;28;20419;-73
2021/04/03 08:54:21;;;;;;;18.48;5.28;;;8.40;62.40;;;;;;5014792;28;20022;-73
2021/04/03 08:56:47;;;;;;;25.75;5.78;;;8.40;61.80;;;;;;5026413;28;20022;-73
2021/04/03 08:59:20;;;;;;;20.52;6.20;;;8.50;62.10;;;;;;5029284;28;20048;-73
2021/04/03 09:01:52;;;;;;;25.30;6.00;;;8.40;61.30;;;;;;5020399;28;20058;-72
2021/04/03 09:04:20;;;;;;;22.13;5.65;;;8.40;62.10;;;;;;5013816;28;20065;-71
2021/04/03 09:06:57;;;;;;;18.88;5.60;;;8.40;61.30;;;;;;5020836;28;20576;-76
2021/04/03 09:09:31;;;;;;;18.05;5.63;;;8.50;61.70;;;;;;5008937;28;20057;-71
2021/04/03 09:12:00;;;;;;;22.77;5.85;;;8.50;61.00;;;;;;4991403;28;20034;-76
2021/04/03 09:14:29;;;;;;;20.38;5.10;;;8.40;60.70;;;;;;4993548;28;20038;-75
2021/04/03 09:16:56;;;;;;;19.88;5.65;;;8.60;60.40;;;;;;5016010;28;20038;-72
2021/04/03 09:19:33;;;;;;;17.25;5.85;;;8.60;60.30;;;;;;5018483;28;20025;-72
2021/04/03 09:21:59;;;;;;;29.17;6.70;;;8.80;60.30;;;;;;5028144;28;20083;-72
2021/04/03 09:24:38;;;;;;;19.02;5.53;;;8.90;60.00;;;;;;5025157;28;20042;-72
2021/04/03 09:27:16;;;;;;;21.48;5.63;;;8.90;60.50;;;;;;5025860;28;20050;-76
2021/04/03 09:29:44;;;;;;;17.70;5.43;;;9.00;60.30;;;;;;5024239;28;20033;-72
2021/04/03 09:32:11;;;;;;;21.25;5.88;;;9.00;59.10;;;;;;5023259;28;20045;-73
2021/04/03 09:34:38;;;;;;;20.02;5.68;;;9.00;59.40;;;;;;5000725;28;20486;-72
2021/04/03 09:37:21;;;;;;;21.45;5.55;;;9.00;58.80;;;;;;5003699;28;20040;-71
2021/04/03 09:39:52;;;;;;;23.73;5.13;;;8.90;59.10;;;;;;5028070;28;20044;-75
2021/04/03 09:42:20;;;;;;;18.58;5.07;;;8.90;60.60;;;;;;5023920;28;20123;-70
2021/04/03 09:44:47;;;;;;;22.05;5.70;;;8.90;60.30;;;;;;5022674;28;20025;-74
2021/04/03 09:47:13;;;;;;;20.83;6.40;;;9.00;61.20;;;;;;5022935;28;20037;-70
2021/04/03 09:49:39;;;;;;;18.83;5.38;;;9.10;61.50;;;;;;5030082;28;20038;-70
2021/04/03 09:52:06;;;;;;;27.55;7.13;;;9.00;60.50;;;;;;5043126;28;20041;-72
2021/04/03 09:54:32;;;;;;;24.88;5.45;;;9.00;60.90;;;;;;5027990;28;20109;-72
2021/04/03 09:57:01;;;;;;;20.77;6.10;;;9.10;61.10;;;;;;5029528;28;20033;-73
2021/04/03 09:59:26;;;;;;;18.45;5.55;;;9.30;60.80;;;;;;5026076;28;20409;-71
2021/04/03 10:01:52;;;;;;;20.33;5.95;;;9.30;60.40;;;;;;5024034;28;20037;-73
2021/04/03 10:04:18;;;;;;;24.52;5.88;;;9.30;59.60;;;;;;5023054;28;20076;-74
2021/04/03 10:06:43;;;;;;;19.15;5.03;;;9.20;59.20;;;;;;5024228;28;20049;-70
2021/04/03 10:09:09;;;;;;;20.25;4.55;;;9.00;59.20;;;;;;5025639;28;20057;-69
2021/04/03 10:11:35;;;;;;;18.55;5.18;;;9.00;59.50;;;;;;5027270;28;20084;-76
2021/04/03 10:14:01;;;;;;;19.80;4.95;;;9.00;59.80;;;;;;5028801;28;20033;-71
2021/04/03 10:16:27;;;;;;;28.05;5.70;;;9.10;59.90;;;;;;5022869;28;20042;-71
2021/04/03 10:18:53;;;;;;;19.30;5.18;;;9.10;60.20;;;;;;5010496;28;20151;-73
2021/04/03 10:21:19;;;;;;;20.48;5.25;;;9.40;59.50;;;;;;5016906;28;20160;-71
2021/04/03 10:23:45;;;;;;;16.38;4.82;;;9.40;59.50;;;;;;5015202;28;20030;-71
2021/04/03 10:26:11;;;;;;;20.08;4.72;;;9.60;59.00;;;;;;5012723;28;20026;-70
2021/04/03 10:28:36;;;;;;;23.90;4.75;;;9.40;59.00;;;;;;5018875;28;20076;-72
2021/04/03 10:31:02;;;;;;;19.55;5.05;;;9.40;59.10;;;;;;5019093;28;20049;-71
2021/04/03 10:33:29;;;;;;;17.95;4.95;;;9.60;58.80;;;;;;5016254;28;20038;-74
2021/04/03 10:35:55;;;;;;;24.27;5.32;;;9.70;58.90;;;;;;5012221;28;20425;-70
2021/04/03 10:38:21;;;;;;;21.73;4.75;;;9.70;58.40;;;;;;5015611;28;20117;-70
2021/04/03 10:40:46;;;;;;;25.23;5.63;;;9.90;57.70;;;;;;5021377;28;20133;-71
2021/04/03 10:43:12;;;;;;;20.83;6.10;;;10.10;57.30;;;;;;5026430;28;20141;-71
2021/04/03 10:45:38;;;;;;;25.23;6.75;;;10.10;56.30;;;;;;5021776;28;20069;-71
2021/04/03 10:48:04;;;;;;;25.35;6.45;;;10.00;56.50;;;;;;5021366;28;20057;-71
2021/04/03 10:50:30;;;;;;;26.52;6.53;;;9.90;56.80;;;;;;5040028;28;20033;-71
2021/04/03 10:52:55;;;;;;;25.35;6.60;;;10.00;56.60;;;;;;5025055;28;20088;-70
2021/04/03 10:55:21;;;;;;;21.52;6.03;;;10.00;56.30;;;;;;5025553;28;20065;-71
2021/04/03 10:57:47;;;;;;;20.77;5.88;;;10.00;55.70;;;;;;5041815;28;20036;-73
2021/04/03 11:00:14;;;;;;;21.48;5.35;;;9.80;55.60;;;;;;5047012;28;20033;-71
2021/04/03 11:02:40;;;;;;;17.33;5.22;;;9.60;56.40;;;;;;5026165;28;20527;-70
2021/04/03 11:05:06;;;;;;;18.45;6.00;;;9.90;56.10;;;;;;5027673;28;20061;-70
2021/04/03 11:07:32;;;;;;;21.85;5.93;;;10.10;56.00;;;;;;5030347;28;20053;-72
2021/04/03 11:09:57;;;;;;;15.88;5.78;;;10.40;54.30;;;;;;5026453;28;20026;-73
2021/04/03 11:12:23;;;;;;;18.98;6.07;;;10.60;53.70;;;;;;5030903;28;20049;-70
2021/04/03 11:14:49;;;;;;;23.67;7.20;;;10.60;53.40;;;;;;5028050;28;20545;-70
2021/04/03 11:17:14;;;;;;;18.25;6.55;;;10.60;53.60;;;;;;5032226;28;20029;-73
2021/04/03 11:19:40;;;;;;;20.48;6.82;;;10.60;53.70;;;;;;5027153;28;20029;-71
2021/04/03 11:22:06;;;;;;;20.98;7.38;;;10.60;53.40;;;;;;5030435;28;20053;-71
2021/04/03 11:24:33;;;;;;;17.45;6.30;;;10.70;52.50;;;;;;5020180;28;20112;-71
2021/04/03 11:27:00;;;;;;;18.67;7.53;;;10.80;52.60;;;;;;5026184;28;20080;-70
2021/04/03 11:29:26;;;;;;;18.55;6.70;;;10.90;52.60;;;;;;5025385;28;20473;-70
2021/04/03 11:31:52;;;;;;;18.27;7.15;;;10.40;53.10;;;;;;5021116;28;20580;-70
2021/04/03 11:34:17;;;;;;;21.23;7.15;;;10.10;53.20;;;;;;5024250;28;20040;-71
2021/04/03 11:36:43;;;;;;;17.45;7.20;;;10.20;54.60;;;;;;5037092;28;20216;-70
2021/04/03 11:39:09;;;;;;;23.67;6.93;;;10.50;53.00;;;;;;5034577;28;20083;-73
2021/04/03 11:41:35;;;;;;;23.45;6.47;;;10.60;53.70;;;;;;5029176;28;20441;-72
2021/04/03 11:44:01;;;;;;;21.27;7.13;;;10.80;53.80;;;;;;5018072;28;20038;-71
2021/04/03 11:46:26;;;;;;;16.67;6.88;;;10.70;52.80;;;;;;5019201;28;20340;-71
2021/04/03 11:48:52;;;;;;;19.30;7.15;;;10.70;53.60;;;;;;5023739;28;20556;-74
2021/04/03 11:51:18;;;;;;;23.75;7.35;;;10.70;52.80;;;;;;5031042;28;20140;-71
2021/04/03 11:53:44;;;;;;;20.40;7.15;;;10.70;52.90;;;;;;5032006;28;20434;-70
2021/04/03 11:56:09;;;;;;;18.63;7.20;;;11.00;52.80;;;;;;5036498;28;20079;-71
2021/04/03 11:58:35;;;;;;;19.88;6.60;;;11.10;52.60;;;;;;5027617;28;20484;-71
2021/04/03 12:01:03;;;;;;;18.20;6.78;;;11.10;52.50;;;;;;5029520;28;20707;-70
2021/04/03 12:03:30;;;;;;;18.50;5.72;;;11.30;52.90;;;;;;5024376;28;20075;-70
2021/04/03 12:05:56;;;;;;;24.80;7.22;;;11.30;53.30;;;;;;5038742;28;20153;-71
2021/04/03 12:08:21;;;;;;;21.30;6.88;;;11.50;53.40;;;;;;5027071;28;20038;-73
2021/04/03 12:10:47;;;;;;;24.70;7.53;;;11.50;52.50;;;;;;5029674;28;20583;-70
2021/04/03 12:13:13;;;;;;;22.33;7.50;;;11.40;52.40;;;;;;5028674;28;20022;-73
2021/04/03 12:15:39;;;;;;;21.00;7.30;;;11.50;53.00;;;;;;5028707;28;20056;-74
2021/04/03 12:18:05;;;;;;;20.35;7.75;;;11.60;53.30;;;;;;5025112;28;20029;-71
2021/04/03 12:20:32;;;;;;;19.55;7.53;;;11.70;53.10;;;;;;5025964;28;20037;-71
2021/04/03 12:22:59;;;;;;;26.90;8.07;;;11.60;52.50;;;;;;5025289;28;20032;-70
2021/04/03 12:25:25;;;;;;;22.33;6.82;;;11.00;53.50;;;;;;5019561;28;20058;-71
2021/04/03 12:27:50;;;;;;;24.30;7.95;;;10.60;54.50;;;;;;5022313;28;20115;-70
2021/04/03 12:30:16;;;;;;;23.33;7.93;;;10.70;55.90;;;;;;5017956;28;20042;-69
2021/04/03 12:32:42;;;;;;;23.33;8.98;;;11.00;55.10;;;;;;5026015;28;20544;-70
2021/04/03 12:35:09;;;;;;;22.27;8.35;;;11.50;53.50;;;;;;5023220;28;20159;-69
2021/04/03 12:37:35;;;;;;;24.92;7.18;;;11.40;53.30;;;;;;5024336;28;20396;-70
2021/04/03 12:40:05;;;;;;;20.38;7.05;;;11.10;53.80;;;;;;5028044;28;20037;-70
2021/04/03 12:42:31;;;;;;;20.55;7.10;;;11.10;54.10;;;;;;5019683;28;20042;-71
2021/04/03 12:44:56;;;;;;;21.17;6.85;;;11.00;53.70;;;;;;5025956;28;20442;-71
2021/04/03 12:47:22;;;;;;;18.73;7.05;;;11.10;53.90;;;;;;5025591;28;20429;-72
2021/04/03 12:49:47;;;;;;;22.10;7.80;;;11.10;54.10;;;;;;5026944;28;20037;-71
2021/04/03 12:52:13;;;;;;;23.55;7.38;;;11.10;53.50;;;;;;5027502;28;20049;-71